Time;durP1;ratioP1;P1;durP2;ratioP2;P2;SDS_P1;SDS_P2;PMS_P1;PMS_P2;Temp;Humidity;BMP_temperature;BMP_pressure;BME280_temperature;BME280_humidity;BME280_pressure;Samples;Min_cycle;Max_cycle;Signal;HPM_P1;HPM_P2
2022/05/20 00:01:18;;;;;;;0.88;0.73;;;16.00;57.90;;;;;;5089129;28;20194;-58
2022/05/20 00:03:48;;;;;;;0.60;0.60;;;16.00;57.90;;;;;;5088441;28;20210;-58
2022/05/20 00:06:21;;;;;;;1.00;0.70;;;16.00;57.90;;;;;;5089222;28;20195;-58
2022/05/20 00:08:51;;;;;;;0.60;0.57;;;16.00;57.90;;;;;;5087627;28;20770;-58
2022/05/20 00:11:22;;;;;;;0.88;0.70;;;16.00;57.90;;;;;;5089538;28;20198;-58
2022/05/20 00:13:52;;;;;;;0.77;0.60;;;16.00;57.90;;;;;;5088783;28;20263;-58
2022/05/20 00:16:23;;;;;;;0.95;0.70;;;16.00;58.00;;;;;;5088815;28;20190;-62
2022/05/20 00:18:53;;;;;;;0.50;0.50;;;16.00;58.10;;;;;;5087149;28;20646;-58
2022/05/20 00:21:25;;;;;;;0.55;0.50;;;16.00;58.30;;;;;;5089158;28;20263;-58
2022/05/20 00:23:56;;;;;;;0.55;0.50;;;16.00;58.30;;;;;;5086365;28;20260;-59
2022/05/20 00:26:27;;;;;;;1.00;0.73;;;16.00;58.30;;;;;;5087612;28;20190;-58
2022/05/20 00:28:57;;;;;;;0.70;0.70;;;16.00;58.20;;;;;;5088545;28;20218;-59
2022/05/20 00:31:29;;;;;;;0.60;0.60;;;16.00;58.20;;;;;;5088337;28;20225;-59
2022/05/20 00:33:59;;;;;;;1.23;0.60;;;16.00;58.20;;;;;;5088760;28;20217;-59
2022/05/20 00:36:32;;;;;;;0.80;0.80;;;16.00;58.20;;;;;;5086946;28;20198;-59
2022/05/20 00:39:02;;;;;;;1.20;0.73;;;16.00;58.20;;;;;;5088301;28;20194;-59
2022/05/20 00:41:33;;;;;;;0.60;0.60;;;16.10;58.20;;;;;;5087986;28;21009;-59
2022/05/20 00:44:03;;;;;;;0.70;0.60;;;16.10;58.30;;;;;;5088148;28;20241;-59
2022/05/20 00:46:34;;;;;;;0.80;0.80;;;16.10;58.20;;;;;;5088336;28;20665;-58
2022/05/20 00:49:06;;;;;;;0.50;0.50;;;16.10;58.20;;;;;;5088074;28;20323;-58
2022/05/20 00:51:42;;;;;;;0.75;0.68;;;16.10;58.20;;;;;;5088013;28;20190;-59
2022/05/20 00:54:15;;;;;;;0.90;0.80;;;16.10;58.30;;;;;;5088237;28;20701;-59
2022/05/20 00:56:50;;;;;;;0.50;0.50;;;16.10;58.50;;;;;;5088277;28;20202;-59
2022/05/20 00:59:26;;;;;;;0.70;0.70;;;16.10;58.50;;;;;;5088380;28;20246;-59
2022/05/20 01:01:58;;;;;;;0.80;0.60;;;16.10;58.40;;;;;;5088412;28;20207;-59
2022/05/20 01:04:29;;;;;;;0.60;0.60;;;16.20;58.40;;;;;;5087991;28;20251;-59
2022/05/20 01:07:01;;;;;;;0.70;0.70;;;16.20;58.40;;;;;;5092129;28;20190;-59
2022/05/20 01:09:32;;;;;;;0.73;0.70;;;16.20;58.40;;;;;;5091547;28;20307;-59
2022/05/20 01:12:03;;;;;;;0.80;0.65;;;16.20;58.40;;;;;;5091925;28;20206;-58
2022/05/20 01:14:33;;;;;;;0.65;0.65;;;16.20;58.30;;;;;;5091999;28;20268;-58
2022/05/20 01:17:04;;;;;;;0.70;0.70;;;16.20;58.30;;;;;;5091942;28;20190;-59
2022/05/20 01:19:39;;;;;;;0.80;0.75;;;16.20;58.30;;;;;;5091730;28;20194;-58
2022/05/20 01:22:12;;;;;;;0.88;0.88;;;16.20;58.30;;;;;;5090616;28;20197;-58
2022/05/20 01:24:45;;;;;;;1.02;0.90;;;16.30;58.40;;;;;;5092141;28;20194;-58
2022/05/20 01:27:15;;;;;;;1.05;0.65;;;16.20;58.30;;;;;;5091552;28;20191;-59
2022/05/20 01:29:46;;;;;;;0.70;0.70;;;16.30;58.40;;;;;;5092098;28;20221;-58
2022/05/20 01:32:16;;;;;;;0.77;0.77;;;16.30;58.30;;;;;;5092465;28;20220;-58
2022/05/20 01:34:47;;;;;;;0.60;0.60;;;16.30;58.30;;;;;;5092622;28;20191;-59
2022/05/20 01:37:20;;;;;;;0.80;0.73;;;16.30;58.30;;;;;;5089180;28;20226;-59
2022/05/20 01:39:53;;;;;;;0.50;0.50;;;16.30;58.30;;;;;;5092569;28;20259;-59
2022/05/20 01:42:27;;;;;;;1.13;0.85;;;16.30;58.20;;;;;;5091720;28;20287;-59
2022/05/20 01:45:03;;;;;;;1.52;0.82;;;16.30;58.20;;;;;;5091887;28;20239;-59
2022/05/20 01:47:40;;;;;;;0.68;0.60;;;16.30;58.10;;;;;;5091734;28;20201;-59
2022/05/20 01:50:15;;;;;;;0.77;0.73;;;16.30;58.10;;;;;;5092394;28;20294;-59
2022/05/20 01:52:53;;;;;;;0.80;0.63;;;16.30;58.10;;;;;;5091701;28;20263;-59
2022/05/20 01:55:34;;;;;;;0.52;0.50;;;16.40;58.10;;;;;;5091237;28;20194;-59
2022/05/20 01:58:10;;;;;;;0.55;0.55;;;16.40;58.10;;;;;;5092115;28;20275;-59
2022/05/20 02:00:41;;;;;;;0.80;0.73;;;16.30;58.00;;;;;;5091786;28;20198;-59
2022/05/20 02:03:16;;;;;;;1.05;0.68;;;16.40;58.00;;;;;;5079084;28;20246;-59
2022/05/20 02:05:51;;;;;;;0.82;0.73;;;16.40;58.00;;;;;;5073817;28;20201;-59
2022/05/20 02:08:27;;;;;;;0.85;0.73;;;16.40;58.00;;;;;;5076738;28;20254;-59
2022/05/20 02:11:04;;;;;;;0.75;0.73;;;16.40;58.00;;;;;;5090486;28;20216;-59
2022/05/20 02:13:36;;;;;;;1.50;0.70;;;16.40;58.00;;;;;;5091351;28;20210;-59
2022/05/20 02:16:13;;;;;;;0.55;0.52;;;16.30;58.00;;;;;;5090478;28;20194;-59
2022/05/20 02:18:47;;;;;;;1.00;0.88;;;16.40;58.00;;;;;;5091281;28;20198;-59
2022/05/20 02:21:23;;;;;;;1.08;0.75;;;16.40;58.00;;;;;;5091345;28;20206;-59
2022/05/20 02:23:58;;;;;;;0.73;0.73;;;16.40;58.00;;;;;;5091516;28;20218;-59
2022/05/20 02:26:35;;;;;;;0.90;0.90;;;16.40;58.00;;;;;;5090031;28;20653;-60
2022/05/20 02:29:10;;;;;;;0.80;0.80;;;16.40;57.90;;;;;;5090154;28;20245;-59
2022/05/20 02:31:46;;;;;;;0.75;0.70;;;16.40;57.90;;;;;;5088250;28;20193;-58
2022/05/20 02:34:17;;;;;;;0.90;0.80;;;16.40;57.90;;;;;;5090957;28;20684;-59
2022/05/20 02:36:47;;;;;;;0.80;0.70;;;16.40;57.90;;;;;;5090872;28;20247;-59
2022/05/20 02:39:18;;;;;;;1.10;0.60;;;16.40;57.90;;;;;;5088464;28;20222;-59
2022/05/20 02:41:51;;;;;;;0.70;0.70;;;16.50;58.00;;;;;;5090709;28;20222;-58
2022/05/20 02:44:21;;;;;;;0.90;0.80;;;16.50;58.50;;;;;;5090457;28;20210;-59
2022/05/20 02:46:52;;;;;;;0.80;0.80;;;16.40;57.90;;;;;;5090683;28;20591;-59
2022/05/20 02:49:23;;;;;;;0.82;0.70;;;16.40;57.80;;;;;;5090812;28;20251;-58
2022/05/20 02:51:54;;;;;;;0.77;0.75;;;16.50;57.90;;;;;;5090499;28;20190;-61
2022/05/20 02:54:24;;;;;;;0.85;0.77;;;16.40;57.80;;;;;;5090568;28;20218;-60
2022/05/20 02:56:57;;;;;;;0.85;0.70;;;16.40;57.80;;;;;;5090347;28;20194;-58
2022/05/20 03:05:00;;;;;;;1.02;0.80;;;16.50;58.00;;;;;;5090464;28;20198;-58
2022/05/20 03:07:31;;;;;;;1.17;0.80;;;16.50;57.90;;;;;;5087639;28;20198;-59
2022/05/20 03:10:01;;;;;;;0.80;0.75;;;16.40;57.90;;;;;;5090447;28;20676;-58
2022/05/20 03:12:35;;;;;;;1.02;0.80;;;16.50;58.00;;;;;;5088973;28;20214;-59
2022/05/20 03:15:06;;;;;;;0.80;0.77;;;16.40;58.10;;;;;;5089684;28;20198;-58
2022/05/20 03:17:36;;;;;;;0.70;0.70;;;16.50;58.10;;;;;;5089003;28;20226;-59
2022/05/20 03:20:09;;;;;;;1.13;0.80;;;16.50;58.10;;;;;;5089134;28;20229;-58
2022/05/20 03:22:40;;;;;;;0.80;0.80;;;16.40;58.00;;;;;;5089611;28;20271;-59
2022/05/20 03:25:11;;;;;;;1.60;0.90;;;16.40;58.00;;;;;;5090090;28;20198;-59
2022/05/20 03:27:43;;;;;;;1.08;0.80;;;16.50;58.00;;;;;;5089331;28;20700;-58
2022/05/20 03:30:15;;;;;;;0.80;0.80;;;16.40;57.90;;;;;;5088344;28;20279;-59
2022/05/20 03:32:45;;;;;;;1.00;0.80;;;16.40;57.90;;;;;;5089430;28;20217;-58
2022/05/20 03:35:16;;;;;;;1.00;0.90;;;16.40;57.90;;;;;;5088615;28;20662;-58
2022/05/20 03:37:47;;;;;;;2.13;1.05;;;16.40;58.00;;;;;;5089657;28;20190;-58
2022/05/20 03:40:17;;;;;;;1.05;0.95;;;16.40;58.00;;;;;;5087699;28;20218;-58
2022/05/20 03:42:49;;;;;;;0.82;0.70;;;16.40;58.10;;;;;;5089832;28;20263;-60
2022/05/20 03:45:20;;;;;;;1.40;1.00;;;16.40;58.10;;;;;;5089778;28;20186;-59
2022/05/20 03:47:51;;;;;;;1.23;0.80;;;16.40;58.10;;;;;;5090000;28;20721;-61
2022/05/20 03:50:21;;;;;;;1.77;0.88;;;16.40;58.10;;;;;;5089495;28;20302;-58
2022/05/20 03:52:52;;;;;;;1.38;1.10;;;16.40;58.10;;;;;;5088763;28;20207;-61
2022/05/20 03:55:23;;;;;;;1.10;0.95;;;16.30;58.10;;;;;;5089491;28;20217;-58
2022/05/20 03:57:56;;;;;;;1.48;1.08;;;16.40;58.10;;;;;;5088738;28;20197;-58
2022/05/20 04:00:26;;;;;;;2.65;1.40;;;16.40;58.10;;;;;;5088490;28;20194;-59
2022/05/20 04:02:55;;;;;;;1.80;1.10;;;16.40;58.10;;;;;;5089166;28;20218;-58
2022/05/20 04:05:26;;;;;;;1.40;1.30;;;16.30;58.10;;;;;;5089478;28;20526;-59
2022/05/20 04:07:57;;;;;;;1.83;1.30;;;16.30;58.10;;;;;;5088074;28;20247;-58
2022/05/20 04:10:27;;;;;;;1.73;1.13;;;16.40;58.10;;;;;;5088838;28;20958;-58
2022/05/20 04:12:59;;;;;;;1.35;1.20;;;16.30;58.00;;;;;;5088165;28;20249;-58
2022/05/20 04:15:30;;;;;;;2.00;1.50;;;16.30;58.00;;;;;;5089996;28;20255;-58
2022/05/20 04:18:01;;;;;;;1.70;1.27;;;16.30;58.00;;;;;;5088020;28;20198;-58
2022/05/20 04:20:31;;;;;;;2.53;1.40;;;16.30;58.00;;;;;;5088764;28;20263;-58
2022/05/20 04:23:02;;;;;;;1.88;1.27;;;16.30;58.00;;;;;;5088262;28;20274;-58
2022/05/20 04:25:32;;;;;;;2.65;1.55;;;16.30;58.00;;;;;;5088117;28;20218;-59
2022/05/20 04:28:04;;;;;;;1.45;1.35;;;16.30;58.00;;;;;;5088743;28;20226;-58
2022/05/20 04:30:35;;;;;;;2.13;1.42;;;16.30;58.00;;;;;;5088635;28;20306;-58
2022/05/20 04:33:06;;;;;;;1.77;1.25;;;16.30;58.00;;;;;;5088860;28;20241;-59
2022/05/20 04:35:36;;;;;;;2.03;1.20;;;16.30;58.00;;;;;;5087227;28;20299;-58
2022/05/20 04:38:07;;;;;;;1.77;1.33;;;16.20;57.90;;;;;;5088150;28;20275;-58
2022/05/20 04:40:37;;;;;;;2.42;1.55;;;16.20;57.90;;;;;;5088082;28;20666;-58
2022/05/20 04:48:43;;;;;;;2.38;1.30;;;16.20;57.90;;;;;;5088452;28;20209;-58
2022/05/20 04:51:14;;;;;;;2.03;1.35;;;16.20;57.80;;;;;;5087897;28;20314;-58
2022/05/20 04:56:31;;;;;;;1.60;1.25;;;16.20;57.90;;;;;;5087605;28;20197;-58
2022/05/20 04:59:03;;;;;;;1.50;1.10;;;16.10;57.80;;;;;;5087305;28;20186;-58
2022/05/20 05:01:34;;;;;;;1.55;1.20;;;16.10;57.80;;;;;;5088150;28;20247;-58
2022/05/20 05:04:04;;;;;;;1.52;1.30;;;16.10;57.80;;;;;;5087584;28;20210;-58
2022/05/20 05:06:35;;;;;;;1.67;1.10;;;16.10;57.80;;;;;;5087400;28;20557;-58
2022/05/20 05:09:05;;;;;;;1.85;1.40;;;16.10;57.80;;;;;;5088140;28;20733;-58
2022/05/20 05:11:39;;;;;;;1.42;1.20;;;16.10;57.80;;;;;;5087550;28;20251;-58
2022/05/20 05:14:13;;;;;;;1.40;1.20;;;16.10;57.80;;;;;;5087169;28;20787;-58
2022/05/20 05:16:44;;;;;;;1.65;1.27;;;16.00;57.70;;;;;;5087986;28;20730;-59
2022/05/20 05:19:15;;;;;;;2.25;1.40;;;16.00;57.70;;;;;;5087779;28;20283;-59
2022/05/20 05:21:46;;;;;;;2.30;1.55;;;16.00;57.70;;;;;;5088037;28;20259;-59
2022/05/20 05:24:16;;;;;;;1.80;1.35;;;16.00;57.70;;;;;;5085726;28;20782;-60
2022/05/20 05:26:47;;;;;;;2.17;1.52;;;16.00;57.80;;;;;;5087392;28;20222;-59
2022/05/20 05:29:19;;;;;;;2.63;1.40;;;16.00;57.80;;;;;;5088218;28;20566;-59
2022/05/20 05:31:50;;;;;;;1.38;1.25;;;16.00;57.80;;;;;;5087325;28;20341;-59
2022/05/20 05:34:21;;;;;;;1.85;1.23;;;16.00;57.90;;;;;;5087153;28;20230;-59
2022/05/20 05:36:51;;;;;;;2.03;1.33;;;16.00;58.30;;;;;;5087885;28;20690;-59
2022/05/20 05:39:22;;;;;;;2.95;1.45;;;16.00;58.30;;;;;;5088296;28;20194;-59
2022/05/20 05:41:52;;;;;;;2.05;1.30;;;15.90;58.10;;;;;;5088060;28;20190;-61
2022/05/20 05:44:25;;;;;;;2.17;1.48;;;15.90;58.10;;;;;;5088239;28;20263;-59
2022/05/20 05:46:55;;;;;;;1.73;1.25;;;15.90;58.00;;;;;;5088035;28;20202;-59
2022/05/20 05:49:26;;;;;;;1.98;1.73;;;15.90;57.90;;;;;;5085762;28;20233;-58
2022/05/20 05:51:57;;;;;;;2.15;1.60;;;15.90;57.90;;;;;;5088744;28;20231;-59
2022/05/20 05:54:27;;;;;;;2.47;1.88;;;15.90;57.90;;;;;;5091570;28;20206;-59
2022/05/20 05:56:58;;;;;;;2.80;1.63;;;15.90;57.90;;;;;;5090443;28;20190;-58
2022/05/20 05:59:31;;;;;;;2.58;1.52;;;15.90;57.90;;;;;;5091487;28;20194;-59
2022/05/20 06:02:02;;;;;;;2.90;1.80;;;15.80;57.80;;;;;;5092079;28;20277;-59
2022/05/20 06:04:32;;;;;;;2.60;2.00;;;15.80;57.90;;;;;;5091523;28;20282;-59
2022/05/20 06:07:03;;;;;;;2.55;1.77;;;15.80;57.80;;;;;;5092014;28;20220;-59
2022/05/20 06:09:34;;;;;;;2.45;1.63;;;15.80;57.80;;;;;;5091113;28;20230;-59
2022/05/20 06:12:05;;;;;;;2.80;1.55;;;15.80;57.80;;;;;;5090970;28;20198;-59
2022/05/20 06:14:37;;;;;;;2.35;1.80;;;15.80;57.80;;;;;;5091538;28;20198;-59
2022/05/20 06:17:08;;;;;;;2.22;1.60;;;15.80;57.80;;;;;;5091235;28;20294;-59
2022/05/20 06:19:38;;;;;;;2.28;1.75;;;15.70;57.80;;;;;;5091653;28;20236;-58
2022/05/20 06:22:09;;;;;;;1.98;1.65;;;15.70;58.10;;;;;;5090751;28;20186;-59
2022/05/20 06:24:40;;;;;;;2.38;1.40;;;15.70;57.70;;;;;;5090896;28;20629;-58
2022/05/20 06:27:10;;;;;;;2.65;1.65;;;15.70;57.60;;;;;;5090494;28;20291;-59
2022/05/20 06:29:42;;;;;;;2.13;1.38;;;15.70;57.70;;;;;;5091406;28;20243;-59
2022/05/20 06:32:13;;;;;;;2.13;1.48;;;15.70;57.70;;;;;;5089734;28;20251;-59
2022/05/20 06:40:21;;;;;;;1.50;1.38;;;15.60;57.60;;;;;;5089099;28;20205;-59
2022/05/20 06:42:51;;;;;;;3.35;1.52;;;15.60;57.60;;;;;;5085539;28;20228;-59
2022/05/20 06:45:24;;;;;;;2.63;1.63;;;15.60;57.70;;;;;;5091197;28;20247;-59
2022/05/20 06:47:54;;;;;;;1.65;1.35;;;15.60;57.70;;;;;;5091110;28;20275;-59
2022/05/20 06:50:25;;;;;;;1.80;1.50;;;15.60;57.70;;;;;;5090756;28;20318;-59
2022/05/20 06:52:55;;;;;;;1.73;1.40;;;15.60;57.70;;;;;;5090522;28;20214;-58
2022/05/20 06:55:26;;;;;;;1.50;1.20;;;15.60;57.80;;;;;;5090481;28;20259;-59
2022/05/20 06:57:56;;;;;;;1.85;1.48;;;15.60;57.70;;;;;;5090308;28;20194;-59
2022/05/20 07:00:29;;;;;;;1.95;1.27;;;15.50;57.70;;;;;;5091017;28;20187;-58
2022/05/20 07:03:00;;;;;;;1.95;1.30;;;15.50;57.70;;;;;;5089829;28;20985;-59
2022/05/20 07:05:30;;;;;;;1.63;1.42;;;15.50;57.70;;;;;;5090738;28;20186;-56
2022/05/20 07:08:01;;;;;;;2.13;1.65;;;15.50;57.60;;;;;;5089976;28;20778;-58
2022/05/20 07:10:31;;;;;;;1.67;1.50;;;15.50;57.70;;;;;;5089579;28;20218;-59
2022/05/20 07:13:02;;;;;;;2.20;1.55;;;15.50;57.70;;;;;;5090027;28;20206;-59
2022/05/20 07:15:35;;;;;;;1.98;1.50;;;15.50;57.70;;;;;;5090670;28;20249;-59
2022/05/20 07:18:05;;;;;;;1.27;1.17;;;15.50;57.70;;;;;;5083488;28;20191;-58
2022/05/20 07:20:36;;;;;;;2.25;1.33;;;15.40;57.60;;;;;;5072904;28;20198;-58
2022/05/20 07:23:06;;;;;;;2.33;1.40;;;15.40;57.60;;;;;;5072750;28;20222;-59
2022/05/20 07:25:37;;;;;;;1.50;1.23;;;15.40;57.60;;;;;;5072803;28;20199;-58
2022/05/20 07:28:08;;;;;;;1.70;1.50;;;15.40;57.50;;;;;;5072106;28;20198;-59
2022/05/20 07:30:40;;;;;;;1.83;1.20;;;15.40;57.60;;;;;;5071784;28;20258;-59
2022/05/20 07:33:11;;;;;;;1.92;1.40;;;15.40;57.60;;;;;;5052614;28;20227;-59
2022/05/20 07:35:42;;;;;;;1.90;1.23;;;15.40;57.60;;;;;;5053311;28;20199;-59
2022/05/20 07:38:13;;;;;;;1.67;1.27;;;15.40;57.60;;;;;;5052674;28;20321;-59
2022/05/20 07:40:43;;;;;;;1.90;1.50;;;15.30;57.60;;;;;;5052500;28;20709;-59
2022/05/20 07:43:14;;;;;;;1.40;1.17;;;15.30;57.60;;;;;;5052129;28;20219;-59
2022/05/20 07:45:46;;;;;;;1.60;1.20;;;15.30;57.50;;;;;;5051947;28;20217;-59
2022/05/20 07:48:17;;;;;;;1.70;1.20;;;15.30;57.50;;;;;;5052144;28;20203;-59
2022/05/20 07:50:50;;;;;;;1.30;1.20;;;15.30;57.50;;;;;;5052106;28;20276;-59
2022/05/20 07:53:22;;;;;;;2.00;1.20;;;15.30;57.50;;;;;;5052215;28;20219;-59
2022/05/20 07:55:56;;;;;;;1.42;1.33;;;15.30;57.50;;;;;;5052207;28;20195;-59
2022/05/20 07:58:30;;;;;;;1.98;1.40;;;15.30;57.50;;;;;;5060170;28;20225;-59
2022/05/20 08:01:03;;;;;;;1.50;1.20;;;15.20;57.40;;;;;;5071337;28;20199;-59
2022/05/20 08:06:27;;;;;;;1.80;1.38;;;15.20;57.40;;;;;;5037339;28;20210;-59
2022/05/20 08:08:57;;;;;;;1.52;1.30;;;15.20;57.40;;;;;;5071264;28;20201;-59
2022/05/20 08:11:29;;;;;;;1.60;1.13;;;15.20;57.40;;;;;;5071904;28;20226;-59
2022/05/20 08:13:59;;;;;;;1.27;1.02;;;15.20;57.40;;;;;;5071893;28;20219;-59
2022/05/20 08:16:32;;;;;;;2.67;1.60;;;15.10;57.40;;;;;;5069508;28;20222;-59
2022/05/20 08:19:02;;;;;;;1.80;1.40;;;15.20;57.40;;;;;;5069004;28;20198;-59
2022/05/20 08:21:34;;;;;;;1.40;1.27;;;15.10;57.40;;;;;;5071362;28;20244;-59
2022/05/20 08:24:04;;;;;;;2.50;1.40;;;15.10;57.40;;;;;;5071510;28;20272;-58
2022/05/20 08:26:35;;;;;;;1.52;1.27;;;15.10;57.40;;;;;;5071336;28;20225;-59
2022/05/20 08:29:06;;;;;;;1.70;1.42;;;15.10;57.30;;;;;;5071249;28;20198;-59
2022/05/20 08:31:39;;;;;;;1.20;1.05;;;15.10;57.30;;;;;;5070878;28;20221;-59
2022/05/20 08:34:09;;;;;;;2.08;1.23;;;15.10;57.30;;;;;;5070387;28;20230;-59
2022/05/20 08:36:40;;;;;;;1.80;1.40;;;15.10;57.30;;;;;;5069265;28;20244;-60
2022/05/20 08:39:12;;;;;;;1.55;1.20;;;15.10;57.30;;;;;;5071055;28;20247;-60
2022/05/20 08:41:44;;;;;;;2.03;1.40;;;15.00;57.30;;;;;;5071123;28;20190;-60
2022/05/20 08:44:19;;;;;;;1.30;1.20;;;15.00;57.20;;;;;;5071327;28;20678;-59
2022/05/20 08:46:52;;;;;;;1.00;0.88;;;15.00;57.20;;;;;;5071032;28;20190;-60
2022/05/20 08:49:27;;;;;;;2.08;1.20;;;15.00;57.20;;;;;;5071343;28;20257;-59
2022/05/20 08:51:57;;;;;;;1.75;1.40;;;15.00;57.30;;;;;;5070715;28;20648;-60
2022/05/20 08:54:28;;;;;;;1.88;1.42;;;15.00;57.20;;;;;;5071254;28;20210;-59
2022/05/20 08:56:58;;;;;;;1.30;1.20;;;15.00;57.30;;;;;;5071076;28;20256;-60
2022/05/20 08:59:30;;;;;;;1.65;1.02;;;14.90;57.20;;;;;;5071265;28;20190;-59
2022/05/20 09:02:02;;;;;;;1.55;1.45;;;14.90;57.20;;;;;;5070790;28;20225;-59
2022/05/20 09:04:33;;;;;;;2.53;1.30;;;14.90;57.30;;;;;;5071370;28;20671;-60
2022/05/20 09:07:05;;;;;;;1.83;1.40;;;14.90;57.30;;;;;;5071159;28;20260;-59
2022/05/20 09:09:48;;;;;;;1.42;1.20;;;14.90;57.30;;;;;;5071355;28;20191;-60
2022/05/20 09:12:32;;;;;;;1.23;1.13;;;14.90;57.20;;;;;;5071248;28;20222;-59
2022/05/20 09:18:03;;;;;;;1.92;1.48;;;14.80;57.10;;;;;;5070296;28;20202;-59
2022/05/20 09:20:34;;;;;;;1.88;1.40;;;14.80;57.10;;;;;;5071182;28;20198;-59
2022/05/20 09:23:07;;;;;;;2.17;1.25;;;14.80;57.10;;;;;;5070904;28;20250;-59
2022/05/20 09:25:46;;;;;;;1.42;0.95;;;14.80;57.10;;;;;;5071002;28;20650;-59
2022/05/20 09:28:33;;;;;;;1.42;1.00;;;14.80;57.20;;;;;;5074800;28;20610;-59
2022/05/20 09:31:18;;;;;;;1.45;1.10;;;14.80;57.20;;;;;;5074750;28;20218;-59
2022/05/20 09:33:57;;;;;;;1.65;1.10;;;14.80;57.20;;;;;;5074610;28;20598;-59
2022/05/20 09:36:40;;;;;;;1.50;1.10;;;14.70;57.20;;;;;;5075574;28;20199;-59
2022/05/20 09:39:14;;;;;;;1.30;1.10;;;14.70;57.10;;;;;;5074854;28;20198;-59
2022/05/20 09:41:53;;;;;;;3.03;1.40;;;14.70;57.10;;;;;;5074858;28;20230;-59
2022/05/20 09:44:27;;;;;;;1.73;1.10;;;14.70;57.10;;;;;;5074325;28;20250;-59
2022/05/20 09:47:01;;;;;;;1.63;1.25;;;14.70;57.20;;;;;;5073670;28;20191;-59
2022/05/20 09:49:42;;;;;;;1.65;1.30;;;14.70;57.20;;;;;;5074224;28;20259;-60
2022/05/20 09:52:33;;;;;;;1.60;1.48;;;14.70;57.20;;;;;;5074154;28;20303;-59
2022/05/20 09:55:05;;;;;;;1.58;1.33;;;14.60;57.10;;;;;;5074609;28;20572;-58
2022/05/20 09:57:41;;;;;;;1.50;1.30;;;14.60;57.10;;;;;;5074128;28;20244;-60
2022/05/20 10:00:19;;;;;;;2.35;1.10;;;14.60;57.10;;;;;;5073491;28;20203;-59
2022/05/20 10:02:58;;;;;;;1.33;1.10;;;14.60;57.10;;;;;;5072758;28;20215;-59
2022/05/20 10:05:36;;;;;;;2.47;1.20;;;14.60;57.10;;;;;;5073227;28;20198;-61
2022/05/20 10:08:19;;;;;;;1.35;1.23;;;14.60;57.60;;;;;;5073619;28;20199;-58
2022/05/20 10:11:00;;;;;;;2.00;1.40;;;14.60;58.20;;;;;;5074193;28;20252;-59
2022/05/20 10:13:43;;;;;;;4.13;1.20;;;14.60;58.50;;;;;;5074013;28;20219;-58
2022/05/20 10:16:23;;;;;;;3.22;1.45;;;14.60;58.70;;;;;;5073581;28;20283;-59
2022/05/20 10:19:03;;;;;;;4.63;1.42;;;14.60;58.80;;;;;;5079692;28;20222;-59
2022/05/20 10:21:59;;;;;;;1.63;1.23;;;14.60;58.70;;;;;;5091388;28;20219;-62
2022/05/20 10:24:49;;;;;;;4.20;1.65;;;14.60;58.70;;;;;;5087692;28;20214;-63
2022/05/20 10:27:25;;;;;;;2.05;1.30;;;14.60;58.80;;;;;;5090463;28;20298;-58
2022/05/20 10:32:56;;;;;;;3.67;1.38;;;14.60;59.00;;;;;;5090977;28;20748;-59
2022/05/20 10:35:37;;;;;;;2.75;1.35;;;14.60;59.10;;;;;;5089854;28;20606;-62
2022/05/20 10:38:23;;;;;;;3.45;2.28;;;14.60;59.00;;;;;;5089043;28;20571;-59
2022/05/20 10:41:07;;;;;;;3.92;1.63;;;14.60;59.10;;;;;;5088269;28;20194;-61
2022/05/20 10:49:50;;;;;;;4.28;2.30;;;14.60;59.00;;;;;;5090793;28;20198;-62
2022/05/20 10:52:33;;;;;;;4.53;1.90;;;14.60;58.90;;;;;;5086995;28;20222;-60
2022/05/20 10:55:19;;;;;;;2.50;1.40;;;14.60;58.90;;;;;;5090323;28;20226;-62
2022/05/20 10:58:33;;;;;;;4.07;1.83;;;14.60;58.90;;;;;;5089033;28;20928;-63
2022/05/20 11:01:12;;;;;;;2.92;1.70;;;14.50;58.80;;;;;;5069206;28;20248;-62
2022/05/20 11:04:20;;;;;;;4.43;1.90;;;14.50;58.70;;;;;;5089423;28;20284;-60
2022/05/20 11:07:26;;;;;;;3.15;2.17;;;14.60;58.70;;;;;;5089730;28;20737;-62
2022/05/20 11:10:11;;;;;;;3.33;2.30;;;14.50;58.80;;;;;;5090213;28;20221;-60
2022/05/20 11:12:55;;;;;;;3.95;2.72;;;14.50;59.00;;;;;;5088483;28;20226;-62
2022/05/20 11:15:48;;;;;;;3.70;2.28;;;14.50;59.20;;;;;;5087761;28;20190;-61
2022/05/20 11:18:45;;;;;;;3.13;2.22;;;14.50;59.10;;;;;;5090282;28;20194;-59
2022/05/20 11:21:46;;;;;;;3.47;2.22;;;14.50;59.00;;;;;;5089318;28;20221;-61
2022/05/20 11:24:53;;;;;;;2.83;2.05;;;14.50;58.90;;;;;;5090100;28;20267;-60
2022/05/20 11:28:02;;;;;;;2.85;1.92;;;14.50;58.90;;;;;;5088188;28;20252;-61
2022/05/20 11:30:48;;;;;;;3.28;2.03;;;14.50;58.80;;;;;;5066037;28;20221;-59
2022/05/20 11:33:45;;;;;;;2.45;1.90;;;14.50;58.70;;;;;;5089857;28;20232;-60
2022/05/20 11:36:34;;;;;;;2.78;1.73;;;14.40;58.60;;;;;;5089679;28;20190;-59
2022/05/20 11:39:48;;;;;;;3.13;1.90;;;14.40;58.60;;;;;;5089619;28;20271;-62
2022/05/20 11:42:26;;;;;;;2.40;1.70;;;14.40;58.50;;;;;;5088720;28;20239;-61
2022/05/20 11:45:16;;;;;;;2.75;1.77;;;14.40;58.50;;;;;;5087646;28;20274;-59
2022/05/20 11:48:15;;;;;;;3.90;1.90;;;14.40;58.50;;;;;;5089417;28;20293;-63
2022/05/20 11:51:12;;;;;;;3.13;1.90;;;14.40;58.40;;;;;;5087179;28;20222;-61
2022/05/20 11:53:47;;;;;;;2.95;1.83;;;14.30;58.30;;;;;;5088512;28;20294;-61
2022/05/20 11:56:23;;;;;;;1.83;1.48;;;14.30;58.30;;;;;;5089757;28;20190;-61
2022/05/20 11:59:01;;;;;;;2.95;1.60;;;14.30;58.30;;;;;;5088825;28;20197;-61
2022/05/20 12:01:33;;;;;;;2.47;1.60;;;14.30;58.20;;;;;;5087704;28;20194;-60
2022/05/20 12:04:09;;;;;;;2.55;1.88;;;14.30;58.20;;;;;;5088657;28;20920;-61
2022/05/20 12:06:45;;;;;;;2.10;1.63;;;14.30;58.20;;;;;;5088819;28;20202;-60
2022/05/20 12:09:35;;;;;;;2.08;1.40;;;14.30;58.20;;;;;;5088615;28;20198;-61
2022/05/20 12:12:27;;;;;;;1.90;1.65;;;14.30;58.20;;;;;;5088658;28;20614;-62
2022/05/20 12:15:44;;;;;;;3.17;1.60;;;14.20;58.10;;;;;;5089109;28;20638;-61
2022/05/20 12:24:35;;;;;;;2.42;1.70;;;14.20;58.00;;;;;;5088632;28;20224;-61
2022/05/20 12:27:12;;;;;;;2.00;1.40;;;14.10;57.90;;;;;;5088699;28;20229;-59
2022/05/20 12:30:07;;;;;;;2.38;1.77;;;14.20;57.90;;;;;;5088234;28;20186;-62
2022/05/20 12:32:55;;;;;;;2.55;1.80;;;14.10;57.90;;;;;;5086209;28;20230;-62
2022/05/20 12:35:37;;;;;;;1.95;1.50;;;14.10;57.90;;;;;;5088822;28;20212;-61
2022/05/20 12:38:27;;;;;;;1.75;1.50;;;14.10;57.90;;;;;;5085999;28;20279;-61
2022/05/20 12:41:02;;;;;;;1.70;1.45;;;14.10;57.90;;;;;;5087803;28;20678;-62
2022/05/20 12:43:53;;;;;;;2.10;1.60;;;14.10;57.90;;;;;;5088278;28;20266;-61
2022/05/20 12:46:50;;;;;;;1.83;1.30;;;14.10;57.90;;;;;;5087089;28;20198;-62
2022/05/20 12:49:21;;;;;;;2.55;1.70;;;14.10;57.90;;;;;;5088524;28;20235;-62
2022/05/20 12:51:54;;;;;;;1.75;1.40;;;14.10;57.80;;;;;;5088663;28;20249;-59
2022/05/20 12:54:29;;;;;;;2.80;1.40;;;14.00;57.70;;;;;;5086029;28;20271;-62
2022/05/20 12:57:07;;;;;;;1.60;1.50;;;14.00;57.70;;;;;;5088614;28;20210;-61
2022/05/20 12:59:38;;;;;;;2.20;1.50;;;14.00;57.70;;;;;;5088217;28;20283;-61
2022/05/20 13:02:16;;;;;;;1.85;1.40;;;14.00;57.70;;;;;;5087985;28;20230;-61
2022/05/20 13:04:51;;;;;;;1.52;1.02;;;14.00;57.70;;;;;;5089317;28;20649;-60
2022/05/20 13:07:22;;;;;;;2.20;1.50;;;14.00;57.60;;;;;;5088321;28;20247;-59
2022/05/20 13:09:54;;;;;;;2.40;1.50;;;14.00;57.60;;;;;;5088456;28;20267;-59
2022/05/20 13:12:26;;;;;;;2.17;1.40;;;14.00;57.60;;;;;;5085389;28;20245;-59
2022/05/20 13:15:02;;;;;;;1.70;1.40;;;14.00;57.60;;;;;;5085937;28;20205;-62
2022/05/20 13:17:35;;;;;;;1.60;1.25;;;13.90;57.60;;;;;;5087987;28;20185;-62
2022/05/20 13:20:06;;;;;;;1.55;1.42;;;13.90;57.60;;;;;;5087776;28;20267;-61
2022/05/20 13:22:49;;;;;;;1.65;1.40;;;13.90;57.50;;;;;;5087968;28;20685;-62
2022/05/20 13:25:22;;;;;;;1.35;1.20;;;13.90;57.50;;;;;;5087912;28;20272;-59
2022/05/20 13:27:53;;;;;;;1.92;1.40;;;13.90;57.50;;;;;;5088234;28;20751;-60
2022/05/20 13:30:30;;;;;;;1.50;1.25;;;13.90;57.50;;;;;;5087980;28;20194;-59
2022/05/20 13:33:05;;;;;;;1.58;1.13;;;13.90;57.50;;;;;;5087822;28;20244;-61
2022/05/20 13:35:43;;;;;;;1.50;1.40;;;13.90;57.50;;;;;;5088384;28;20221;-62
2022/05/20 13:38:13;;;;;;;1.25;1.02;;;13.90;57.50;;;;;;5088324;28;20596;-61
2022/05/20 13:40:47;;;;;;;1.30;1.17;;;13.90;57.50;;;;;;5087895;28;20247;-62
2022/05/20 13:43:20;;;;;;;1.75;1.30;;;13.90;57.50;;;;;;5087613;28;20297;-61
2022/05/20 13:51:31;;;;;;;1.40;1.13;;;13.80;57.40;;;;;;5087069;28;20209;-61
2022/05/20 13:54:06;;;;;;;1.35;1.00;;;13.80;57.30;;;;;;5087600;28;20264;-61
2022/05/20 13:56:41;;;;;;;1.48;1.10;;;13.80;57.40;;;;;;5087836;28;20247;-61
2022/05/20 13:59:25;;;;;;;1.48;1.35;;;13.80;57.30;;;;;;5085538;28;20255;-61
2022/05/20 14:01:57;;;;;;;1.20;0.93;;;13.80;57.30;;;;;;5087630;28;20662;-62
2022/05/20 14:04:37;;;;;;;1.60;1.40;;;13.80;57.30;;;;;;5088227;28;20222;-61
2022/05/20 14:07:11;;;;;;;0.95;0.90;;;13.70;57.20;;;;;;5088196;28;20252;-61
2022/05/20 14:09:45;;;;;;;1.58;0.95;;;13.70;57.20;;;;;;5087966;28;20627;-61
2022/05/20 14:12:22;;;;;;;1.00;0.90;;;13.70;57.30;;;;;;5086010;28;20295;-62
2022/05/20 14:14:59;;;;;;;1.35;1.25;;;13.70;57.30;;;;;;5091086;28;20193;-62